Time;durP1;ratioP1;P1;durP2;ratioP2;P2;SDS_P1;SDS_P2;PMS_P1;PMS_P2;Temp;Humidity;BMP_temperature;BMP_pressure;BME280_temperature;BME280_humidity;BME280_pressure;Samples;Min_cycle;Max_cycle;Signal;HPM_P1;HPM_P2
2022/03/30 00:00:13;;;;;;;27.42;20.63;;;;;;;8.18;100.00;99609.91;5092589;28;20048;-54
2022/03/30 00:02:39;;;;;;;31.08;19.50;;;;;;;8.29;100.00;99628.53;5092975;28;20031;-55
2022/03/30 00:05:05;;;;;;;32.33;19.92;;;;;;;8.21;100.00;99631.53;5092978;28;20081;-55
2022/03/30 00:07:32;;;;;;;28.60;20.58;;;;;;;8.27;100.00;99635.63;5092556;28;20093;-54
2022/03/30 00:09:58;;;;;;;35.15;20.67;;;;;;;8.20;100.00;99623.78;5092731;28;20028;-51
2022/03/30 00:12:24;;;;;;;29.38;21.33;;;;;;;8.20;100.00;99623.78;5092754;28;20024;-54
2022/03/30 00:14:49;;;;;;;28.40;20.60;;;;;;;8.08;100.00;99603.47;5093180;28;20031;-55
2022/03/30 00:17:15;;;;;;;29.85;19.98;;;;;;;8.20;100.00;99624.63;5092509;28;20066;-53
2022/03/30 00:19:40;;;;;;;30.90;19.77;;;;;;;7.78;100.00;99558.00;5092921;28;20074;-53
2022/03/30 00:22:05;;;;;;;31.73;21.55;;;;;;;8.20;100.00;99635.09;5092827;28;20028;-55
2022/03/30 00:24:30;;;;;;;25.42;20.05;;;;;;;8.17;100.00;99627.41;5093014;28;20375;-52
2022/03/30 00:26:56;;;;;;;24.67;19.95;;;;;;;8.17;100.00;99623.94;5092628;28;20032;-54
2022/03/30 00:29:21;;;;;;;29.13;20.88;;;;;;;8.16;100.00;99623.09;5056042;28;20028;-55
2022/03/30 00:31:47;;;;;;;24.63;20.25;;;;;;;8.12;100.00;99624.19;5046917;28;20093;-55
2022/03/30 00:34:12;;;;;;;28.02;21.40;;;;;;;8.10;100.00;99610.34;5046115;28;20031;-55
2022/03/30 00:36:37;;;;;;;32.80;20.05;;;;;;;7.96;100.00;99588.44;5045310;28;20028;-55
2022/03/30 00:39:03;;;;;;;37.10;21.60;;;;;;;8.10;100.00;99614.72;5060341;28;20455;-55
2022/03/30 00:41:28;;;;;;;33.70;21.85;;;;;;;8.08;100.00;99617.41;5092630;28;20039;-54
2022/03/30 00:43:53;;;;;;;30.40;21.98;;;;;;;7.99;100.00;99603.97;5092531;28;20028;-55
2022/03/30 00:46:19;;;;;;;28.42;21.70;;;;;;;8.04;100.00;99621.09;5092710;28;20039;-53
2022/03/30 00:48:44;;;;;;;28.58;20.48;;;;;;;8.00;100.00;99610.91;5092207;28;20024;-55
2022/03/30 00:51:10;;;;;;;36.60;22.50;;;;;;;7.99;100.00;99607.44;5085620;28;20051;-53
2022/03/30 00:53:36;;;;;;;25.70;20.25;;;;;;;7.93;100.00;99599.91;5092848;28;20036;-55
2022/03/30 00:56:03;;;;;;;28.60;21.75;;;;;;;7.88;100.00;99596.69;5092928;28;20028;-55
2022/03/30 00:58:29;;;;;;;34.30;21.52;;;;;;;7.85;100.00;99588.16;5092400;28;20035;-54
2022/03/30 01:00:55;;;;;;;32.65;22.23;;;;;;;7.96;100.00;99615.44;5092168;28;20024;-55
2022/03/30 01:03:20;;;;;;;33.55;21.70;;;;;;;7.90;100.00;99597.47;5092500;28;20416;-56
2022/03/30 01:05:46;;;;;;;33.90;22.70;;;;;;;7.88;100.00;99596.69;5092479;28;20077;-55
2022/03/30 01:08:12;;;;;;;33.65;21.85;;;;;;;7.89;100.00;99594.91;5091091;28;20382;-54
2022/03/30 01:10:37;;;;;;;37.92;22.35;;;;;;;7.90;100.00;99591.38;5092347;28;20024;-55
2022/03/30 01:13:05;;;;;;;31.80;23.08;;;;;;;7.86;100.00;99588.06;5092425;28;20036;-54
2022/03/30 01:15:31;;;;;;;34.70;21.33;;;;;;;7.84;100.00;99589.91;5092592;28;20078;-55
2022/03/30 01:17:57;;;;;;;30.83;20.92;;;;;;;7.85;100.00;99578.53;5096268;28;20032;-55
2022/03/30 01:20:23;;;;;;;31.55;20.63;;;;;;;7.72;100.00;99564.41;5095690;28;20111;-54
2022/03/30 01:22:49;;;;;;;28.08;22.67;;;;;;;7.81;100.00;99578.78;5096472;28;20408;-55
2022/03/30 01:25:15;;;;;;;32.75;22.15;;;;;;;7.80;100.00;99572.72;5095859;28;20024;-54
2022/03/30 01:27:40;;;;;;;28.92;21.60;;;;;;;7.77;100.00;99579.88;5095790;28;20028;-53
2022/03/30 01:32:55;;;;;;;36.58;22.65;;;;;;;7.72;100.00;99569.63;5096648;28;20042;-55
2022/03/30 01:35:21;;;;;;;32.28;22.65;;;;;;;7.44;100.00;99528.38;5096115;28;20443;-55
2022/03/30 01:37:46;;;;;;;33.00;22.40;;;;;;;7.68;100.00;99570.72;5095958;28;20059;-52
2022/03/30 01:40:12;;;;;;;27.75;20.83;;;;;;;7.67;100.00;99566.44;5095935;28;20024;-53
2022/03/30 01:42:38;;;;;;;34.70;23.13;;;;;;;7.24;100.00;99498.97;5095699;28;20417;-50
2022/03/30 01:45:03;;;;;;;41.55;23.33;;;;;;;7.60;100.00;99554.59;5095421;28;20115;-54
2022/03/30 01:47:29;;;;;;;31.88;21.15;;;;;;;7.40;100.00;99526.03;5095438;28;20028;-51
2022/03/30 01:49:54;;;;;;;33.95;21.65;;;;;;;7.55;100.00;99548.75;5077136;28;20086;-51
2022/03/30 01:52:20;;;;;;;40.45;22.67;;;;;;;7.50;100.00;99556.00;5095287;28;20020;-54
2022/03/30 01:54:45;;;;;;;30.27;22.25;;;;;;;7.42;100.00;99548.53;5095570;28;20114;-54
2022/03/30 01:57:14;;;;;;;37.63;23.42;;;;;;;7.40;100.00;99541.72;5095227;28;20388;-56
2022/03/30 01:59:41;;;;;;;35.20;22.42;;;;;;;7.43;100.00;99552.00;5093017;28;20024;-55
2022/03/30 02:02:07;;;;;;;30.20;22.70;;;;;;;7.42;100.00;99547.69;5095100;28;20043;-56
2022/03/30 02:04:34;;;;;;;35.95;22.92;;;;;;;7.40;100.00;99552.16;5095205;28;20039;-56
2022/03/30 02:07:01;;;;;;;34.03;22.10;;;;;;;7.28;100.00;99531.88;5095562;28;20066;-55
2022/03/30 02:09:27;;;;;;;31.13;22.38;;;;;;;7.28;100.00;99535.31;5095458;28;20035;-56
2022/03/30 02:11:54;;;;;;;31.75;22.13;;;;;;;7.25;100.00;99529.41;5095000;28;20074;-55
2022/03/30 02:14:20;;;;;;;30.92;21.17;;;;;;;7.22;100.00;99538.25;5095165;28;20058;-55
2022/03/30 02:16:45;;;;;;;34.42;22.30;;;;;;;7.20;100.00;99534.84;5094960;28;20107;-55
2022/03/30 02:19:11;;;;;;;40.33;21.70;;;;;;;7.16;100.00;99534.16;5094786;28;20540;-54
2022/03/30 02:21:37;;;;;;;31.90;22.67;;;;;;;7.12;100.00;99537.03;5095232;28;20028;-53
2022/03/30 02:24:02;;;;;;;33.05;21.45;;;;;;;7.09;100.00;99538.03;5094755;28;20466;-53
2022/03/30 02:26:30;;;;;;;33.25;22.50;;;;;;;7.04;100.00;99529.56;5094208;28;20083;-52
2022/03/30 02:28:55;;;;;;;30.10;21.50;;;;;;;6.89;100.00;99519.91;5094816;28;20040;-51
2022/03/30 02:31:21;;;;;;;34.72;22.23;;;;;;;6.91;100.00;99538.94;5095087;28;20035;-50
2022/03/30 02:33:48;;;;;;;32.67;22.10;;;;;;;6.82;100.00;99515.88;5094585;28;20028;-50
2022/03/30 02:36:13;;;;;;;29.23;21.83;;;;;;;6.59;100.00;99485.66;5094793;28;20528;-54
2022/03/30 02:38:39;;;;;;;38.08;23.13;;;;;;;6.66;100.00;99507.94;5094876;28;20046;-55
2022/03/30 02:41:05;;;;;;;28.48;21.38;;;;;;;6.68;100.00;99513.09;5094621;28;20508;-54
2022/03/30 02:43:31;;;;;;;36.95;21.65;;;;;;;6.63;100.00;99517.69;5094753;28;20030;-55
2022/03/30 02:45:57;;;;;;;30.33;22.00;;;;;;;6.56;100.00;99505.84;5094503;28;20031;-55
2022/03/30 02:48:28;;;;;;;33.65;22.67;;;;;;;6.56;100.00;99516.28;5094134;28;20093;-55
2022/03/30 02:51:02;;;;;;;35.83;22.65;;;;;;;6.43;100.00;99500.38;5094351;28;20024;-55
2022/03/30 02:53:28;;;;;;;27.83;19.98;;;;;;;6.43;100.00;99513.41;5094492;28;20489;-54
2022/03/30 02:55:53;;;;;;;34.63;22.98;;;;;;;6.34;100.00;99505.19;5094076;28;20036;-54
2022/03/30 02:58:19;;;;;;;32.95;22.02;;;;;;;6.31;100.00;99505.34;5093992;28;20436;-57
2022/03/30 03:00:45;;;;;;;32.25;23.00;;;;;;;6.28;100.00;99519.38;5094196;28;20034;-50
2022/03/30 03:03:11;;;;;;;33.15;20.95;;;;;;;6.21;100.00;99499.72;5094380;28;20028;-52
2022/03/30 03:05:38;;;;;;;34.45;21.27;;;;;;;6.13;100.00;99510.50;5094211;28;20039;-54
2022/03/30 03:08:08;;;;;;;37.25;22.17;;;;;;;6.11;100.00;99509.72;5093872;28;20030;-55
2022/03/30 03:10:36;;;;;;;35.08;22.73;;;;;;;6.11;100.00;99509.72;5093936;28;20028;-55
2022/03/30 03:13:03;;;;;;;32.58;20.15;;;;;;;6.11;100.00;99517.56;5093822;28;20035;-54
2022/03/30 03:15:32;;;;;;;36.03;23.25;;;;;;;6.09;100.00;99508.94;5094099;28;20409;-54
2022/03/30 03:17:58;;;;;;;25.98;21.25;;;;;;;6.02;100.00;99499.72;5093769;28;20103;-54
2022/03/30 03:20:24;;;;;;;33.88;22.77;;;;;;;6.02;100.00;99499.72;5093533;28;20115;-55
2022/03/30 03:22:49;;;;;;;34.00;22.77;;;;;;;5.96;100.00;99486.97;5093936;28;20059;-54
2022/03/30 03:25:14;;;;;;;39.13;22.23;;;;;;;5.98;100.00;99495.53;5093770;28;20062;-55
2022/03/30 03:27:40;;;;;;;32.80;21.20;;;;;;;5.75;100.00;99456.63;5093711;28;20478;-52
2022/03/30 03:30:07;;;;;;;41.72;25.23;;;;;;;5.90;100.00;99489.84;5093494;28;20020;-53
2022/03/30 03:32:32;;;;;;;30.98;21.77;;;;;;;5.85;100.00;99481.34;5093662;28;20028;-53
2022/03/30 03:34:57;;;;;;;31.10;22.48;;;;;;;5.84;100.00;99484.91;5093856;28;20028;-54
2022/03/30 03:37:23;;;;;;;32.13;23.58;;;;;;;5.77;100.00;99482.63;5093341;28;20130;-52
2022/03/30 03:39:48;;;;;;;37.00;23.52;;;;;;;5.74;100.00;99472.34;5092707;28;20043;-54
2022/03/30 03:42:13;;;;;;;34.75;23.48;;;;;;;5.69;100.00;99467.34;5093247;28;20032;-53
2022/03/30 03:44:39;;;;;;;44.40;22.83;;;;;;;5.70;100.00;99471.63;5093456;28;20024;-51
2022/03/30 03:47:07;;;;;;;34.85;23.60;;;;;;;5.73;100.00;99474.09;5093582;28;20036;-55
2022/03/30 03:49:33;;;;;;;32.00;22.35;;;;;;;5.65;100.00;99473.59;5093416;28;20047;-54
2022/03/30 03:51:58;;;;;;;36.47;24.08;;;;;;;5.62;100.00;99478.94;5093166;28;20032;-55
2022/03/30 03:54:23;;;;;;;29.83;22.60;;;;;;;5.45;100.00;99455.41;5093432;28;20028;-54
2022/03/30 03:56:49;;;;;;;31.63;22.33;;;;;;;5.54;100.00;99481.88;5093211;28;20030;-55
2022/03/30 03:59:14;;;;;;;43.83;23.33;;;;;;;5.44;100.00;99472.78;5093493;28;20103;-55
2022/03/30 04:01:39;;;;;;;34.78;22.17;;;;;;;5.46;100.00;99468.38;5074642;28;20028;-54
2022/03/30 04:04:06;;;;;;;35.78;23.60;;;;;;;5.44;100.00;99469.34;5092799;28;20119;-54
2022/03/30 04:06:32;;;;;;;33.58;22.77;;;;;;;5.27;100.00;99435.41;5074978;28;20028;-55
2022/03/30 04:08:57;;;;;;;35.90;22.85;;;;;;;5.49;100.00;99468.22;5093033;28;20040;-53
2022/03/30 04:11:23;;;;;;;34.63;22.63;;;;;;;5.47;100.00;99464.88;5075002;28;20044;-53
2022/03/30 04:13:49;;;;;;;32.15;22.10;;;;;;;5.46;100.00;99467.53;5093262;28;20390;-53
2022/03/30 04:16:16;;;;;;;29.35;22.10;;;;;;;5.44;100.00;99458.94;5092511;28;20046;-55
2022/03/30 04:18:44;;;;;;;32.47;23.55;;;;;;;5.43;100.00;99467.66;5093198;28;20036;-55
2022/03/30 04:21:10;;;;;;;37.45;23.70;;;;;;;5.37;100.00;99458.38;5092468;28;20024;-55
2022/03/30 04:23:35;;;;;;;35.85;21.88;;;;;;;5.33;100.00;99461.16;5092488;28;20055;-54
2022/03/30 04:26:01;;;;;;;45.30;23.25;;;;;;;5.30;100.00;99461.31;5092899;28;20055;-55
2022/03/30 04:28:27;;;;;;;41.40;22.70;;;;;;;5.25;100.00;99447.63;5093046;28;20474;-54
2022/03/30 04:30:52;;;;;;;44.38;23.38;;;;;;;5.23;100.00;99459.88;5092850;28;20019;-53
2022/03/30 04:33:18;;;;;;;38.58;23.48;;;;;;;5.02;100.00;99436.47;5092780;28;20024;-54
2022/03/30 04:35:43;;;;;;;33.35;22.80;;;;;;;5.15;100.00;99458.44;5092306;28;20086;-54
2022/03/30 04:38:09;;;;;;;34.70;23.45;;;;;;;5.08;100.00;99450.97;5092781;28;20024;-54
2022/03/30 04:40:34;;;;;;;32.28;23.05;;;;;;;5.07;100.00;99457.91;5092955;28;20028;-53
2022/03/30 04:43:00;;;;;;;40.97;21.60;;;;;;;4.89;100.00;99430.09;5092848;28;20025;-54
2022/03/30 04:45:25;;;;;;;35.80;22.58;;;;;;;5.01;100.00;99457.34;5092534;28;20043;-54
2022/03/30 04:47:54;;;;;;;37.58;24.00;;;;;;;4.91;100.00;99443.03;5092539;28;20366;-50
2022/03/30 04:50:21;;;;;;;34.00;22.25;;;;;;;4.92;100.00;99457.75;5092394;28;20067;-52
2022/03/30 04:52:47;;;;;;;42.67;26.13;;;;;;;4.90;100.00;99457.78;5096718;28;20055;-54
2022/03/30 04:55:12;;;;;;;42.60;22.98;;;;;;;4.84;100.00;99468.47;5096691;28;20466;-53
2022/03/30 04:57:40;;;;;;;39.38;23.08;;;;;;;4.80;100.00;99455.66;5096360;28;20059;-54
2022/03/30 05:00:08;;;;;;;34.40;24.48;;;;;;;4.74;100.00;99456.75;5096673;28;20032;-50
2022/03/30 05:02:33;;;;;;;38.00;22.92;;;;;;;4.68;100.00;99450.94;5096632;28;20039;-53
2022/03/30 05:04:59;;;;;;;39.15;22.48;;;;;;;4.61;100.00;99445.16;5096391;28;20429;-53
2022/03/30 05:07:24;;;;;;;39.33;24.95;;;;;;;4.56;100.00;99439.31;5096444;28;20378;-54
2022/03/30 05:09:49;;;;;;;39.47;24.40;;;;;;;4.57;100.00;99449.66;5096420;28;20028;-52
2022/03/30 05:12:15;;;;;;;36.00;24.80;;;;;;;4.55;100.00;99448.88;5096167;28;20070;-54
2022/03/30 05:14:40;;;;;;;38.70;24.42;;;;;;;4.50;100.00;99442.16;5096018;28;20043;-50
2022/03/30 05:17:06;;;;;;;38.70;25.40;;;;;;;4.39;100.00;99431.34;5096144;28;20035;-51
2022/03/30 05:19:32;;;;;;;40.42;25.48;;;;;;;4.29;100.00;99420.44;5095603;28;20154;-52
2022/03/30 05:21:57;;;;;;;42.28;26.80;;;;;;;4.32;100.00;99422.09;5095864;28;20058;-52
2022/03/30 05:24:23;;;;;;;40.50;26.15;;;;;;;4.48;100.00;99446.56;5096172;28;20024;-52
2022/03/30 05:26:49;;;;;;;38.13;24.58;;;;;;;4.49;100.00;99445.69;5095793;28;20028;-54
2022/03/30 05:29:14;;;;;;;41.63;26.02;;;;;;;4.53;100.00;99452.41;5095795;28;20024;-54
2022/03/30 05:31:40;;;;;;;45.38;25.95;;;;;;;4.54;100.00;99451.53;5096030;28;20051;-53
2022/03/30 05:34:05;;;;;;;40.75;25.98;;;;;;;4.54;100.00;99443.72;5077896;28;20024;-53
2022/03/30 05:36:30;;;;;;;38.28;26.77;;;;;;;4.51;100.00;99433.44;5096325;28;20458;-54
2022/03/30 05:38:56;;;;;;;39.80;26.58;;;;;;;4.51;100.00;99441.25;5095562;28;20395;-52
2022/03/30 05:41:21;;;;;;;41.75;24.83;;;;;;;4.53;100.00;99452.41;5095446;28;20032;-51
2022/03/30 05:43:46;;;;;;;46.30;25.08;;;;;;;4.56;100.00;99447.13;5077419;28;20032;-54
2022/03/30 05:46:12;;;;;;;40.35;24.75;;;;;;;4.54;100.00;99448.91;5095683;28;20115;-53
2022/03/30 05:48:38;;;;;;;46.53;25.60;;;;;;;4.53;100.00;99452.41;5094926;28;20106;-53
2022/03/30 05:51:03;;;;;;;35.95;24.17;;;;;;;4.41;100.00;99434.72;5095594;28;20031;-54
2022/03/30 05:53:29;;;;;;;46.00;25.00;;;;;;;4.47;100.00;99460.47;5095384;28;20035;-53
2022/03/30 05:55:57;;;;;;;37.20;25.25;;;;;;;4.43;100.00;99462.34;5095372;28;20028;-54
2022/03/30 05:58:23;;;;;;;41.08;25.30;;;;;;;4.19;100.00;99423.50;5095141;28;20046;-54
2022/03/30 06:00:50;;;;;;;48.47;26.90;;;;;;;4.39;100.00;99467.75;5094656;28;20024;-50
2022/03/30 06:03:16;;;;;;;46.88;25.05;;;;;;;4.40;100.00;99472.03;5094668;28;20027;-51
2022/03/30 06:05:42;;;;;;;39.92;25.05;;;;;;;4.39;100.00;99472.97;5095387;28;20409;-51
2022/03/30 06:08:07;;;;;;;40.58;25.92;;;;;;;4.39;100.00;99475.56;5095276;28;20036;-55
2022/03/30 06:10:33;;;;;;;35.53;24.83;;;;;;;4.31;100.00;99456.81;5095160;28;20111;-52
2022/03/30 06:12:59;;;;;;;42.00;26.73;;;;;;;4.42;100.00;99470.22;5094818;28;20028;-55
2022/03/30 06:15:26;;;;;;;41.13;26.73;;;;;;;4.38;100.00;99456.50;5079890;28;20878;-56
2022/03/30 06:17:51;;;;;;;42.80;25.25;;;;;;;4.52;100.00;99476.75;5092697;28;20038;-54
2022/03/30 06:20:17;;;;;;;42.15;27.30;;;;;;;4.09;100.00;99395.28;5094775;28;20023;-55
2022/03/30 06:22:43;;;;;;;38.70;24.90;;;;;;;4.58;100.00;99476.50;5095056;28;20382;-55
2022/03/30 06:25:09;;;;;;;51.42;26.77;;;;;;;4.53;100.00;99473.22;5094148;28;20031;-54
2022/03/30 06:27:36;;;;;;;45.90;26.90;;;;;;;4.61;100.00;99477.22;5094447;28;20115;-52
2022/03/30 06:30:04;;;;;;;39.47;26.02;;;;;;;4.66;100.00;99484.00;5076700;28;20081;-53
2022/03/30 06:32:30;;;;;;;47.67;26.10;;;;;;;4.58;100.00;99471.31;5094401;28;20115;-51
2022/03/30 06:34:55;;;;;;;41.13;25.92;;;;;;;4.70;100.00;99483.78;5094234;28;20566;-54
2022/03/30 06:37:20;;;;;;;33.47;23.50;;;;;;;4.57;100.00;99449.66;5094415;28;20032;-54
2022/03/30 06:39:46;;;;;;;36.58;24.25;;;;;;;4.76;100.00;99465.34;5094627;28;20054;-55
2022/03/30 06:42:11;;;;;;;36.53;24.27;;;;;;;4.79;100.00;99465.22;5094364;28;20024;-55
2022/03/30 06:44:37;;;;;;;56.33;26.75;;;;;;;4.82;100.00;99470.28;5094346;28;20387;-51
2022/03/30 06:47:03;;;;;;;46.95;26.83;;;;;;;4.73;100.00;99442.03;5092308;28;20028;-54
2022/03/30 06:49:28;;;;;;;39.22;24.33;;;;;;;4.98;100.00;99471.34;5094811;28;20370;-55
2022/03/30 06:51:54;;;;;;;40.75;26.50;;;;;;;5.03;100.00;99478.97;5094525;28;20437;-54
2022/03/30 06:54:19;;;;;;;36.22;24.75;;;;;;;5.05;100.00;99474.53;5094113;28;20020;-54
2022/03/30 06:56:45;;;;;;;44.88;24.40;;;;;;;5.10;100.00;99476.00;5094154;28;20062;-54
2022/03/30 06:59:13;;;;;;;51.20;26.25;;;;;;;5.10;100.00;99476.00;5088271;28;20053;-55
2022/03/30 07:01:38;;;;;;;39.85;22.63;;;;;;;5.09;100.00;99476.94;5072696;28;20032;-54
2022/03/30 07:04:04;;;;;;;32.58;23.95;;;;;;;5.10;100.00;99481.22;5073192;28;20029;-54
2022/03/30 07:06:29;;;;;;;44.72;24.67;;;;;;;5.10;100.00;99473.41;5088956;28;20039;-52
2022/03/30 07:11:38;;;;;;;37.27;23.60;;;;;;;5.22;100.00;99479.84;5092402;28;20116;-53
2022/03/30 07:14:03;;;;;;;45.70;24.67;;;;;;;5.15;100.00;99468.88;5092546;28;20031;-55
2022/03/30 07:16:29;;;;;;;36.05;23.85;;;;;;;5.27;100.00;99474.47;5093792;28;20031;-54
2022/03/30 07:18:55;;;;;;;33.83;23.85;;;;;;;5.44;100.00;99472.78;5093051;28;20056;-55
2022/03/30 07:21:20;;;;;;;32.58;22.70;;;;;;;5.47;100.00;99459.66;5091230;28;20532;-54
2022/03/30 07:23:46;;;;;;;34.50;24.25;;;;;;;5.57;100.00;99441.84;5090828;28;20040;-56
2022/03/30 07:26:11;;;;;;;43.45;20.45;;;;;;;5.89;100.00;99469.06;5090306;28;20032;-52
2022/03/30 07:28:37;;;;;;;34.15;23.52;;;;;;;5.89;100.00;99446.44;5091697;28;20059;-55
2022/03/30 07:31:03;;;;;;;42.50;23.55;;;;;;;5.95;100.00;99427.06;5091190;28;20077;-55
2022/03/30 07:33:29;;;;;;;39.95;23.08;;;;;;;6.37;100.00;99474.59;5092543;28;20032;-55
2022/03/30 07:35:55;;;;;;;41.88;24.17;;;;;;;6.54;100.00;99465.94;5074262;28;20452;-54
2022/03/30 07:38:21;;;;;;;40.90;22.92;;;;;;;6.61;100.00;99452.53;5084847;28;20028;-55
2022/03/30 07:40:48;;;;;;;48.30;23.98;;;;;;;6.97;100.00;99475.94;5091635;28;20016;-56
2022/03/30 07:43:14;;;;;;;35.60;23.85;;;;;;;7.11;100.00;99476.09;5091814;28;20103;-55
2022/03/30 07:45:40;;;;;;;38.97;22.27;;;;;;;7.17;100.00;99462.72;5091146;28;20031;-55
2022/03/30 07:48:06;;;;;;;35.08;21.60;;;;;;;7.33;100.00;99459.31;5088727;28;20457;-55
2022/03/30 07:50:32;;;;;;;36.58;19.65;;;;;;;7.54;100.00;99455.56;5091929;28;20411;-54
2022/03/30 07:52:57;;;;;;;32.30;20.92;;;;;;;7.70;100.00;99459.06;5092228;28;20060;-55
2022/03/30 07:55:24;;;;;;;32.85;20.48;;;;;;;7.37;100.00;99398.16;5092125;28;20111;-55
2022/03/30 07:57:50;;;;;;;32.47;21.10;;;;;;;7.78;100.00;99453.41;5091834;28;20505;-55
2022/03/30 08:00:17;;;;;;;33.15;20.58;;;;;;;7.97;100.00;99475.91;5092527;28;20028;-55
2022/03/30 08:02:46;;;;;;;32.92;20.65;;;;;;;7.98;100.00;99472.34;5092287;28;20020;-51
2022/03/30 08:05:13;;;;;;;26.17;18.35;;;;;;;7.98;100.00;99472.34;5091567;28;20020;-55
2022/03/30 08:07:45;;;;;;;32.35;20.42;;;;;;;8.01;100.00;99466.94;5092052;28;20065;-54
2022/03/30 08:10:11;;;;;;;32.90;19.25;;;;;;;8.09;100.00;99472.59;5078390;28;20058;-54
2022/03/30 08:12:38;;;;;;;30.65;19.67;;;;;;;8.03;100.00;99467.72;5091072;28;20063;-56
2022/03/30 08:15:04;;;;;;;34.10;19.42;;;;;;;7.58;100.00;99420.50;5091848;28;20080;-56
2022/03/30 08:17:29;;;;;;;29.17;18.90;;;;;;;7.88;100.00;99473.75;5091280;28;20042;-55
2022/03/30 08:19:57;;;;;;;35.30;20.05;;;;;;;7.90;100.00;99473.69;5073240;28;20123;-53
2022/03/30 08:22:28;;;;;;;32.35;18.35;;;;;;;7.64;100.00;99422.78;5092091;28;20089;-56
2022/03/30 08:25:02;;;;;;;29.15;18.08;;;;;;;7.92;100.00;99475.28;5092007;28;20036;-54
2022/03/30 08:27:30;;;;;;;30.90;17.98;;;;;;;7.99;100.00;99458.34;5091028;28;20435;-55
2022/03/30 08:29:56;;;;;;;31.95;19.25;;;;;;;8.16;100.00;99466.09;5091741;28;20026;-54
2022/03/30 08:32:22;;;;;;;34.83;18.45;;;;;;;8.28;100.00;99468.97;5091495;28;20420;-56
2022/03/30 08:34:53;;;;;;;26.77;18.33;;;;;;;8.33;100.00;99467.81;5091695;28;20028;-55
2022/03/30 08:37:18;;;;;;;26.80;18.73;;;;;;;8.31;100.00;99468.84;5073766;28;20047;-54
2022/03/30 08:39:44;;;;;;;29.92;18.40;;;;;;;8.18;100.00;99463.38;5091066;28;20024;-55
2022/03/30 08:42:11;;;;;;;22.98;17.23;;;;;;;8.16;100.00;99467.88;5090399;28;20042;-54
2022/03/30 08:44:37;;;;;;;23.13;16.65;;;;;;;8.19;100.00;99465.06;5091441;28;20024;-55
2022/03/30 08:47:04;;;;;;;35.03;19.48;;;;;;;8.28;100.00;99474.22;5091673;28;20478;-55
2022/03/30 08:49:35;;;;;;;28.80;17.58;;;;;;;8.27;100.00;99468.13;5091249;28;20032;-55
2022/03/30 08:52:02;;;;;;;30.00;17.77;;;;;;;8.13;100.00;99449.72;5091470;28;20039;-52
2022/03/30 08:54:28;;;;;;;29.92;16.52;;;;;;;8.36;100.00;99472.88;5091198;28;20059;-55
2022/03/30 08:56:54;;;;;;;25.55;17.00;;;;;;;8.43;100.00;99468.13;5090886;28;20067;-56
2022/03/30 08:59:21;;;;;;;27.98;16.58;;;;;;;8.69;100.00;99473.56;5092312;28;20566;-53
2022/03/30 09:01:47;;;;;;;23.92;16.27;;;;;;;8.86;100.00;99471.75;5091350;28;20032;-55
2022/03/30 09:04:14;;;;;;;26.25;15.68;;;;;;;8.84;100.00;99439.59;5091954;28;20371;-55
2022/03/30 09:06:41;;;;;;;27.65;15.75;;;;;;;9.10;100.00;99476.41;5090957;28;20063;-57
2022/03/30 09:09:07;;;;;;;30.85;15.23;;;;;;;9.11;100.00;99478.09;5091338;28;20119;-56
2022/03/30 09:11:41;;;;;;;19.85;14.38;;;;;;;9.10;100.00;99473.78;5089605;28;20031;-54
2022/03/30 09:14:08;;;;;;;;;;;;;;;9.19;100.00;99478.47;5090470;28;20094;-55
2022/03/30 09:16:41;;;;;;;21.50;15.07;;;;;;;9.37;100.00;99467.84;5087623;28;19919;-52
2022/03/30 09:19:09;;;;;;;18.13;13.57;;;;;;;9.47;100.00;99471.59;5090537;28;20382;-55
2022/03/30 09:21:43;;;;;;;21.58;14.68;;;;;;;9.52;100.00;99475.63;5090582;28;20059;-54
2022/03/30 09:24:09;;;;;;;27.98;15.27;;;;;;;9.47;100.00;99461.94;5091404;28;20036;-55
2022/03/30 09:26:35;;;;;;;29.27;15.05;;;;;;;9.55;100.00;99472.81;5048144;28;20081;-55
2022/03/30 09:29:01;;;;;;;19.38;13.93;;;;;;;9.60;100.00;99476.00;5042886;28;20031;-56
2022/03/30 09:31:27;;;;;;;20.05;14.43;;;;;;;9.52;100.00;99454.66;5045360;28;20035;-56
2022/03/30 09:33:53;;;;;;;28.85;14.45;;;;;;;9.54;100.00;99465.88;5046431;28;20089;-56
2022/03/30 09:36:36;;;;;;;21.52;13.50;;;;;;;9.43;100.00;99463.06;5044427;28;20032;-54
2022/03/30 09:39:04;;;;;;;20.05;12.57;;;;;;;9.31;100.00;99462.97;5049900;28;20028;-56
2022/03/30 09:41:50;;;;;;;21.10;12.70;;;;;;;9.27;100.00;99464.06;5050301;28;20032;-55
2022/03/30 09:44:16;;;;;;;22.70;13.05;;;;;;;9.17;100.00;99446.28;5049880;28;20198;-56
2022/03/30 09:47:08;;;;;;;19.13;13.13;;;;;;;9.22;100.00;99449.50;5049842;28;20032;-56
2022/03/30 09:49:41;;;;;;;20.90;13.93;;;;;;;9.34;100.00;99447.91;5050955;28;20277;-56
2022/03/30 09:52:11;;;;;;;24.13;14.70;;;;;;;9.42;100.00;99444.81;5049679;28;20861;-56
2022/03/30 09:54:49;;;;;;;22.48;14.65;;;;;;;9.59;100.00;99421.03;5047692;28;20553;-55
2022/03/30 09:57:24;;;;;;;18.73;13.05;;;;;;;9.77;100.00;99440.84;5048023;28;20028;-55
2022/03/30 10:00:02;;;;;;;18.35;13.13;;;;;;;9.82;100.00;99444.06;5048429;28;20134;-55
2022/03/30 10:02:30;;;;;;;16.55;12.30;;;;;;;9.82;100.00;99448.44;5049571;28;20040;-56
2022/03/30 10:04:56;;;;;;;24.38;13.43;;;;;;;9.81;100.00;99452.84;5047794;28;20034;-56
2022/03/30 10:07:22;;;;;;;19.45;12.32;;;;;;;9.96;100.00;99441.41;5048885;28;20900;-56
2022/03/30 10:09:48;;;;;;;23.83;13.45;;;;;;;10.12;100.00;99433.41;5048037;28;20043;-56
2022/03/30 10:12:17;;;;;;;16.10;12.55;;;;;;;10.36;100.00;99438.91;5047731;28;20123;-56
2022/03/30 10:14:44;;;;;;;17.85;13.00;;;;;;;10.62;100.00;99428.38;5047962;28;20090;-55
2022/03/30 10:17:09;;;;;;;17.42;12.45;;;;;;;10.72;100.00;99421.56;5048943;28;20577;-56
2022/03/30 10:19:35;;;;;;;22.15;13.35;;;;;;;10.85;100.00;99426.84;5047374;28;20028;-55
2022/03/30 10:22:17;;;;;;;31.10;13.35;;;;;;;11.09;100.00;99419.09;5047970;28;20060;-56
2022/03/30 10:24:52;;;;;;;20.52;13.75;;;;;;;11.36;100.00;99416.34;5047002;28;20028;-55
2022/03/30 10:27:30;;;;;;;24.10;13.18;;;;;;;11.63;100.00;99417.91;5030882;28;20092;-55
2022/03/30 10:30:04;;;;;;;28.73;12.80;;;;;;;11.67;99.85;99400.13;5029467;28;20331;-57
2022/03/30 10:32:39;;;;;;;19.15;11.90;;;;;;;11.68;98.77;99407.91;5048896;28;20016;-56
2022/03/30 10:35:08;;;;;;;18.40;12.68;;;;;;;11.50;96.77;99397.81;5048127;28;20043;-55
2022/03/30 10:37:39;;;;;;;19.65;11.55;;;;;;;11.48;97.99;99394.47;5047255;28;20036;-56
2022/03/30 10:40:08;;;;;;;26.50;12.38;;;;;;;11.60;97.40;99401.50;5048584;28;20032;-56
2022/03/30 10:42:46;;;;;;;19.75;13.52;;;;;;;11.79;99.53;99391.41;5048298;28;20951;-57
2022/03/30 10:45:43;;;;;;;19.75;13.05;;;;;;;12.05;97.06;99400.06;5046699;28;20129;-56
2022/03/30 10:48:21;;;;;;;18.77;12.55;;;;;;;12.22;94.47;99368.91;5046612;28;20053;-56
2022/03/30 10:50:48;;;;;;;17.33;12.70;;;;;;;12.68;95.97;99394.47;5048875;28;20028;-55
2022/03/30 10:56:09;;;;;;;17.60;13.15;;;;;;;12.61;92.48;99382.69;5047005;28;20032;-57
2022/03/30 10:59:00;;;;;;;59.15;17.63;;;;;;;12.51;89.53;99368.53;5046360;28;20097;-56
2022/03/30 11:01:26;;;;;;;17.90;12.25;;;;;;;12.56;91.41;99374.31;5045812;28;20191;-56
2022/03/30 11:04:10;;;;;;;19.50;12.57;;;;;;;12.77;90.97;99377.97;5048364;28;20790;-56
2022/03/30 11:06:39;;;;;;;;;;;;;;;12.99;90.71;99367.47;5047364;28;20032;-56
2022/03/30 11:09:08;;;;;;;21.88;12.95;;;;;;;12.87;86.61;99317.50;5046066;28;20819;-54
2022/03/30 11:11:42;;;;;;;16.52;11.25;;;;;;;13.28;86.44;99344.97;5045985;28;20815;-56
2022/03/30 11:14:34;;;;;;;25.73;11.82;;;;;;;13.55;86.13;99365.72;5048007;28;20085;-54
2022/03/30 11:17:04;;;;;;;22.33;11.27;;;;;;;13.70;84.76;99359.25;5046340;28;20055;-56
2022/03/30 11:19:57;;;;;;;19.30;11.60;;;;;;;14.10;81.50;99354.22;5046035;28;20051;-56
2022/03/30 11:22:25;;;;;;;20.35;11.82;;;;;;;14.31;80.97;99339.28;5040090;28;20047;-55
2022/03/30 11:25:22;;;;;;;18.60;11.27;;;;;;;14.20;78.05;99357.81;5046493;28;20039;-56